createdAt,value
2023-02-11T00:02:05.766Z,100.00
2023-02-11T00:05:10.588Z,100.00
2023-02-11T00:08:17.099Z,100.00
2023-02-11T00:11:24.200Z,100.00
2023-02-11T00:14:27.597Z,100.00
2023-02-11T00:17:32.582Z,100.00
2023-02-11T00:20:35.829Z,100.00
2023-02-11T00:23:40.434Z,100.00
2023-02-11T00:26:43.604Z,100.00
2023-02-11T00:29:47.223Z,100.00
2023-02-11T00:32:50.372Z,100.00
2023-02-11T00:35:53.775Z,100.00
2023-02-11T00:38:58.074Z,100.00
2023-02-11T00:42:01.402Z,100.00
2023-02-11T00:45:04.818Z,100.00
2023-02-11T00:48:08.544Z,100.00
2023-02-11T00:51:12.522Z,100.00
2023-02-11T00:54:15.950Z,100.00
2023-02-11T00:57:19.466Z,100.00
2023-02-11T01:00:22.971Z,100.00
2023-02-11T01:03:26.858Z,100.00
2023-02-11T01:06:32.080Z,100.00
2023-02-11T01:09:38.604Z,100.00
2023-02-11T01:12:43.700Z,100.00
2023-02-11T01:15:46.906Z,100.00
2023-02-11T01:18:50.636Z,100.00
2023-02-11T01:21:53.828Z,100.00
2023-02-11T01:24:58.149Z,100.00
2023-02-11T01:28:01.524Z,100.00
2023-02-11T01:31:07.548Z,100.00
2023-02-11T01:34:10.814Z,100.00
2023-02-11T01:37:14.286Z,100.00
2023-02-11T01:40:18.164Z,100.00
2023-02-11T01:43:22.048Z,100.00
2023-02-11T01:46:36.047Z,100.00
2023-02-11T01:49:47.664Z,100.00
2023-02-11T01:52:51.876Z,100.00
2023-02-11T01:56:15.326Z,100.00
2023-02-11T01:59:26.116Z,100.00
2023-02-11T02:02:37.025Z,100.00
2023-02-11T02:05:44.575Z,100.00
2023-02-11T02:08:55.674Z,100.00
2023-02-11T02:11:59.167Z,100.00
2023-02-11T02:15:27.037Z,100.00
2023-02-11T02:19:01.543Z,100.00
2023-02-11T02:22:40.409Z,100.00
2023-02-11T02:26:04.598Z,100.00
2023-02-11T02:29:26.686Z,100.00
2023-02-11T02:32:41.986Z,100.00
2023-02-11T02:36:05.807Z,100.00
2023-02-11T02:39:22.731Z,100.00
2023-02-11T02:42:27.092Z,100.00
2023-02-11T02:45:31.805Z,100.00
2023-02-11T02:48:35.892Z,100.00
2023-02-11T02:51:45.409Z,100.00
2023-02-11T02:55:04.259Z,100.00
2023-02-11T02:58:25.833Z,100.00
2023-02-11T03:01:50.224Z,100.00
2023-02-11T03:05:18.211Z,100.00
2023-02-11T03:08:29.211Z,100.00
2023-02-11T03:11:34.860Z,100.00
2023-02-11T03:14:40.694Z,100.00
2023-02-11T03:17:47.462Z,100.00
2023-02-11T03:20:53.477Z,100.00
2023-02-11T03:24:00.699Z,100.00
2023-02-11T03:27:20.572Z,100.00
2023-02-11T03:30:36.087Z,100.00
2023-02-11T03:34:02.429Z,100.00
2023-02-11T03:37:19.491Z,100.00
2023-02-11T03:40:26.830Z,100.00
2023-02-11T03:43:35.817Z,100.00
2023-02-11T03:46:43.040Z,100.00
2023-02-11T03:49:49.862Z,100.00
2023-02-11T03:52:55.700Z,100.00
2023-02-11T03:56:03.369Z,100.00
2023-02-11T03:59:06.540Z,100.00
2023-02-11T04:02:10.075Z,100.00
2023-02-11T04:05:16.154Z,100.00
2023-02-11T04:08:19.411Z,100.00
2023-02-11T04:11:23.139Z,100.00
2023-02-11T04:14:26.275Z,100.00
2023-02-11T04:17:29.748Z,100.00
2023-02-11T04:20:33.148Z,100.00
2023-02-11T04:23:36.813Z,100.00
2023-02-11T04:26:40.239Z,100.00
2023-02-11T04:29:43.682Z,100.00
2023-02-11T04:32:47.265Z,100.00
2023-02-11T04:35:51.309Z,100.00
2023-02-11T04:38:54.484Z,100.00
2023-02-11T04:41:58.008Z,100.00
2023-02-11T04:45:01.917Z,100.00
2023-02-11T04:48:05.766Z,100.00
2023-02-11T04:51:09.011Z,100.00
2023-02-11T04:54:12.828Z,100.00
2023-02-11T04:57:16.089Z,100.00
2023-02-11T05:00:19.912Z,100.00
2023-02-11T05:03:23.096Z,100.00
2023-02-11T05:06:26.864Z,100.00
2023-02-11T05:09:30.431Z,100.00
2023-02-11T05:12:34.041Z,100.00
2023-02-11T05:15:37.256Z,100.00
2023-02-11T05:18:43.272Z,100.00
2023-02-11T05:22:00.445Z,100.00
2023-02-11T05:25:05.201Z,100.00
2023-02-11T05:28:08.383Z,100.00
2023-02-11T05:31:14.699Z,100.00
2023-02-11T05:34:18.381Z,100.00
2023-02-11T05:37:21.834Z,100.00
2023-02-11T05:40:25.026Z,100.00
2023-02-11T05:43:28.479Z,100.00
2023-02-11T05:46:31.673Z,100.00
2023-02-11T05:49:36.718Z,100.00
2023-02-11T05:52:39.963Z,100.00
2023-02-11T05:55:44.428Z,100.00
2023-02-11T05:58:47.472Z,100.00
2023-02-11T06:01:51.600Z,100.00
2023-02-11T06:04:55.094Z,100.00
2023-02-11T06:07:58.683Z,100.00
2023-02-11T06:11:02.089Z,100.00
2023-02-11T06:14:05.473Z,100.00
2023-02-11T06:17:09.205Z,100.00
2023-02-11T06:20:12.614Z,100.00
2023-02-11T06:23:16.107Z,100.00
2023-02-11T06:26:21.888Z,100.00
2023-02-11T06:29:25.425Z,100.00
2023-02-11T06:32:43.483Z,100.00
2023-02-11T06:35:47.649Z,100.00
2023-02-11T06:38:51.465Z,100.00
2023-02-11T06:41:55.247Z,100.00
2023-02-11T06:44:58.558Z,100.00
2023-02-11T06:48:02.139Z,100.00
2023-02-11T06:51:10.284Z,100.00
2023-02-11T06:54:13.694Z,100.00
2023-02-11T06:57:16.939Z,100.00
2023-02-11T07:00:20.841Z,100.00
2023-02-11T07:03:23.963Z,100.00
2023-02-11T07:06:28.274Z,100.00
2023-02-11T07:09:32.652Z,100.00
2023-02-11T07:12:36.108Z,100.00
2023-02-11T07:15:39.734Z,100.00
2023-02-11T07:18:43.882Z,100.00
2023-02-11T07:21:48.778Z,100.00
2023-02-11T07:24:52.217Z,100.00
2023-02-11T07:27:55.450Z,100.00
2023-02-11T07:30:59.013Z,100.00
2023-02-11T07:34:03.011Z,100.00
2023-02-11T07:37:06.525Z,100.00
2023-02-11T07:40:10.548Z,100.00
2023-02-11T07:43:14.075Z,100.00
2023-02-11T07:46:25.493Z,100.00
2023-02-11T07:49:29.771Z,100.00
2023-02-11T07:52:33.058Z,100.00
2023-02-11T07:55:36.411Z,100.00
2023-02-11T07:58:42.283Z,100.00
2023-02-11T08:01:45.875Z,100.00
2023-02-11T08:04:49.437Z,99.53
2023-02-11T08:07:54.037Z,99.06
2023-02-11T08:10:57.883Z,99.72
2023-02-11T08:14:01.429Z,99.41
2023-02-11T08:17:05.482Z,99.49
2023-02-11T08:20:08.963Z,98.91
2023-02-11T08:23:12.538Z,98.72
2023-02-11T08:26:21.742Z,98.32
2023-02-11T08:29:27.441Z,98.53
2023-02-11T08:32:30.635Z,98.18
2023-02-11T08:35:37.101Z,97.65
2023-02-11T08:38:41.928Z,97.27
2023-02-11T08:41:49.903Z,97.07
2023-02-11T08:44:52.946Z,96.82
2023-02-11T08:47:57.104Z,96.23
2023-02-11T08:51:00.604Z,95.56
2023-02-11T08:54:04.556Z,94.52
2023-02-11T08:57:07.929Z,93.25
2023-02-11T09:00:11.985Z,93.74
2023-02-11T09:03:15.716Z,92.60
2023-02-11T09:06:20.524Z,90.79
2023-02-11T09:09:24.441Z,87.59
2023-02-11T09:12:28.158Z,86.15
2023-02-11T09:15:31.031Z,85.29
2023-02-11T09:18:34.611Z,84.25
2023-02-11T09:21:37.763Z,83.67
2023-02-11T09:24:41.548Z,84.10
2023-02-11T09:27:44.760Z,83.70
2023-02-11T09:30:49.504Z,82.98
2023-02-11T09:33:55.318Z,82.11
2023-02-11T09:36:58.669Z,81.10
2023-02-11T09:40:02.249Z,81.27
2023-02-11T09:43:19.576Z,78.52
2023-02-11T09:46:24.804Z,76.37
2023-02-11T09:49:50.836Z,76.63
2023-02-11T09:53:04.865Z,75.54
2023-02-11T09:56:14.296Z,74.31
2023-02-11T09:59:17.808Z,75.12
2023-02-11T10:02:32.523Z,74.74
2023-02-11T10:05:42.011Z,75.65
2023-02-11T10:09:22.773Z,75.71
2023-02-11T10:12:35.394Z,75.90
2023-02-11T10:15:47.744Z,75.32
2023-02-11T10:19:17.198Z,75.16
2023-02-11T10:22:28.641Z,72.92
2023-02-11T10:25:39.770Z,70.68
2023-02-11T10:28:46.690Z,69.96
2023-02-11T10:31:51.761Z,69.83
2023-02-11T10:35:02.118Z,70.40
2023-02-11T10:38:05.764Z,69.53
2023-02-11T10:41:22.815Z,68.74
2023-02-11T10:44:34.130Z,66.25
2023-02-11T10:47:40.583Z,64.41
2023-02-11T10:50:45.028Z,65.25
2023-02-11T10:53:51.222Z,63.71
2023-02-11T10:57:00.451Z,61.63
2023-02-11T11:00:24.503Z,61.38
2023-02-11T11:03:34.558Z,61.17
2023-02-11T11:06:37.952Z,62.00
2023-02-11T11:09:53.158Z,61.67
2023-02-11T11:12:56.481Z,61.58
2023-02-11T11:16:28.481Z,58.11
2023-02-11T11:19:33.278Z,54.45
2023-02-11T11:22:36.907Z,52.94
2023-02-11T11:25:43.906Z,53.55
2023-02-11T11:28:47.337Z,52.10
2023-02-11T11:31:57.078Z,53.10
2023-02-11T11:35:20.606Z,55.05
2023-02-11T11:38:24.693Z,53.66
2023-02-11T11:41:33.763Z,54.63
2023-02-11T11:44:39.977Z,54.28
2023-02-11T11:47:54.653Z,54.69
2023-02-11T11:51:01.495Z,54.29
2023-02-11T11:54:12.487Z,53.70
2023-02-11T11:57:21.310Z,53.27
2023-02-11T12:00:44.672Z,52.57
2023-02-11T12:04:14.525Z,52.48
2023-02-11T12:07:35.166Z,52.29
2023-02-11T12:10:41.801Z,50.19
2023-02-11T12:14:01.108Z,49.22
2023-02-11T12:17:13.547Z,46.64
2023-02-11T12:20:32.252Z,45.78
2023-02-11T12:23:44.752Z,44.98
2023-02-11T12:27:05.468Z,43.55
2023-02-11T12:30:27.388Z,46.16
2023-02-11T12:34:02.199Z,47.09
2023-02-11T12:37:18.345Z,48.05
2023-02-11T12:40:40.996Z,47.69
2023-02-11T12:43:46.101Z,49.19
2023-02-11T12:46:58.149Z,49.61
2023-02-11T12:50:23.087Z,49.48
2023-02-11T12:53:39.636Z,49.09
2023-02-11T12:57:06.963Z,49.03
2023-02-11T13:00:25.219Z,48.42
2023-02-11T13:03:35.340Z,46.66
2023-02-11T13:06:46.969Z,45.80
2023-02-11T13:10:12.331Z,44.83
2023-02-11T13:13:23.855Z,45.85
2023-02-11T13:16:40.755Z,46.96
2023-02-11T13:19:53.425Z,47.06
2023-02-11T13:23:08.641Z,47.83
2023-02-11T13:26:28.072Z,46.40
2023-02-11T13:30:09.624Z,46.43
2023-02-11T13:33:16.653Z,46.73
2023-02-11T13:36:28.433Z,45.73
2023-02-11T13:39:32.532Z,43.84
2023-02-11T13:42:52.530Z,43.17
2023-02-11T13:46:03.871Z,41.23
2023-02-11T13:49:23.457Z,40.99
2023-02-11T13:52:37.937Z,39.57
2023-02-11T13:55:46.457Z,39.74
2023-02-11T13:58:52.133Z,40.68
2023-02-11T14:02:17.810Z,41.45
2023-02-11T14:05:47.424Z,41.57
2023-02-11T14:09:10.734Z,42.08
2023-02-11T14:12:41.667Z,42.61
2023-02-11T14:15:46.779Z,43.12
2023-02-11T14:18:57.154Z,43.40
2023-02-11T14:22:06.816Z,43.88
2023-02-11T14:25:25.987Z,44.42
2023-02-11T14:28:34.571Z,45.43
2023-02-11T14:32:06.043Z,45.00
2023-02-11T14:35:15.706Z,44.98
2023-02-11T14:38:55.588Z,45.07
2023-02-11T14:42:03.988Z,45.66
2023-02-11T14:45:11.414Z,46.40
2023-02-11T14:48:18.314Z,46.33
2023-02-11T14:51:28.870Z,46.12
2023-02-11T14:54:34.521Z,46.24
2023-02-11T14:57:40.081Z,45.81
2023-02-11T15:01:15.013Z,45.93
2023-02-11T15:04:32.347Z,45.98
2023-02-11T15:07:36.616Z,46.67
2023-02-11T15:10:45.882Z,45.42
2023-02-11T15:13:50.758Z,46.66
2023-02-11T15:17:06.844Z,46.92
2023-02-11T15:20:22.424Z,47.43
2023-02-11T15:23:31.448Z,47.78
2023-02-11T15:26:38.754Z,48.65
2023-02-11T15:29:46.920Z,49.60
2023-02-11T15:33:03.552Z,50.09
2023-02-11T15:36:13.293Z,50.46
2023-02-11T15:39:34.487Z,50.96
2023-02-11T15:42:52.392Z,51.81
2023-02-11T15:46:03.331Z,51.81
2023-02-11T15:49:19.690Z,52.55
2023-02-11T15:52:27.745Z,52.98
2023-02-11T15:55:33.863Z,53.07
2023-02-11T15:58:41.457Z,52.95
2023-02-11T16:01:47.636Z,53.55
2023-02-11T16:04:56.279Z,54.65
2023-02-11T16:08:02.205Z,55.71
2023-02-11T16:11:11.049Z,55.94
2023-02-11T16:14:42.739Z,56.72
2023-02-11T16:17:47.731Z,57.73
2023-02-11T16:20:54.703Z,57.55
2023-02-11T16:24:02.327Z,58.26
2023-02-11T16:27:25.019Z,59.17
2023-02-11T16:30:37.655Z,59.45
2023-02-11T16:33:43.272Z,59.78
2023-02-11T16:36:49.623Z,60.34
2023-02-11T16:40:00.135Z,60.12
2023-02-11T16:43:05.586Z,60.69
2023-02-11T16:46:18.740Z,60.95
2023-02-11T16:49:30.212Z,61.36
2023-02-11T16:52:37.433Z,61.98
2023-02-11T16:55:44.453Z,62.58
2023-02-11T16:58:51.498Z,62.47
2023-02-11T17:01:58.260Z,62.10
2023-02-11T17:05:07.134Z,61.76
2023-02-11T17:08:12.739Z,61.52
2023-02-11T17:11:18.149Z,60.17
2023-02-11T17:14:24.218Z,60.38
2023-02-11T17:17:31.563Z,59.86
2023-02-11T17:20:36.978Z,59.98
2023-02-11T17:23:41.888Z,59.50
2023-02-11T17:26:46.779Z,59.54
2023-02-11T17:29:53.894Z,59.84
2023-02-11T17:32:59.592Z,59.98
2023-02-11T17:36:09.670Z,60.20
2023-02-11T17:39:15.421Z,59.77
2023-02-11T17:42:20.430Z,60.43
2023-02-11T17:45:25.116Z,60.78
2023-02-11T17:48:29.045Z,60.63
2023-02-11T17:51:39.779Z,60.88
2023-02-11T17:54:44.719Z,60.74
2023-02-11T17:57:49.624Z,59.99
2023-02-11T18:00:59.714Z,60.14
2023-02-11T18:04:05.671Z,60.24
2023-02-11T18:07:12.997Z,59.56
2023-02-11T18:10:20.155Z,59.53
2023-02-11T18:13:25.685Z,59.72
2023-02-11T18:16:31.128Z,59.31
2023-02-11T18:19:36.810Z,59.39
2023-02-11T18:22:45.150Z,59.74
2023-02-11T18:25:50.299Z,60.46
2023-02-11T18:28:58.427Z,60.91
2023-02-11T18:32:04.572Z,61.09
2023-02-11T18:35:16.161Z,61.71
2023-02-11T18:38:23.739Z,61.88
2023-02-11T18:41:31.394Z,62.46
2023-02-11T18:44:38.246Z,62.51
2023-02-11T18:47:44.605Z,62.66
2023-02-11T18:50:52.239Z,63.15
2023-02-11T18:53:58.013Z,63.33
2023-02-11T18:57:02.850Z,63.51
2023-02-11T19:00:12.669Z,63.60
2023-02-11T19:03:18.380Z,64.23
2023-02-11T19:06:27.957Z,64.81
2023-02-11T19:09:33.590Z,65.21
2023-02-11T19:12:39.453Z,65.69
2023-02-11T19:15:46.560Z,65.70
2023-02-11T19:18:51.835Z,66.14
2023-02-11T19:21:58.660Z,66.45
2023-02-11T19:25:03.962Z,67.00
2023-02-11T19:28:09.644Z,66.33
2023-02-11T19:31:15.220Z,64.93
2023-02-11T19:34:21.737Z,65.82
2023-02-11T19:37:27.393Z,65.92
2023-02-11T19:40:33.446Z,65.91
2023-02-11T19:43:44.226Z,65.64
2023-02-11T19:46:52.973Z,65.31
2023-02-11T19:49:58.673Z,65.66
2023-02-11T19:53:03.655Z,65.85
2023-02-11T19:56:11.935Z,65.70
2023-02-11T19:59:17.851Z,66.23
2023-02-11T20:02:23.025Z,65.76
2023-02-11T20:05:37.810Z,65.97
2023-02-11T20:08:45.131Z,66.00
2023-02-11T20:11:52.507Z,66.00
2023-02-11T20:15:00.206Z,65.84
2023-02-11T20:18:05.467Z,66.30
2023-02-11T20:21:14.081Z,66.67
2023-02-11T20:24:21.794Z,67.41
2023-02-11T20:27:29.173Z,67.15
2023-02-11T20:30:34.002Z,67.71
2023-02-11T20:33:41.966Z,68.30
2023-02-11T20:36:54.914Z,69.18
2023-02-11T20:40:01.704Z,70.05
2023-02-11T20:43:07.479Z,70.91
2023-02-11T20:46:15.229Z,71.36
2023-02-11T20:49:25.453Z,71.89
2023-02-11T20:52:30.305Z,72.62
2023-02-11T20:55:38.947Z,72.68
2023-02-11T20:58:44.216Z,73.05
2023-02-11T21:01:53.934Z,73.50
2023-02-11T21:04:58.935Z,73.35
2023-02-11T21:08:05.514Z,73.29
2023-02-11T21:11:11.049Z,74.18
2023-02-11T21:14:17.088Z,74.23
2023-02-11T21:17:22.567Z,74.21
2023-02-11T21:20:29.094Z,74.72
2023-02-11T21:23:36.524Z,75.02
2023-02-11T21:26:42.746Z,75.61
2023-02-11T21:29:54.065Z,75.89
2023-02-11T21:33:00.270Z,75.81
2023-02-11T21:36:08.345Z,76.62
2023-02-11T21:39:14.467Z,77.22
2023-02-11T21:42:20.707Z,78.01
2023-02-11T21:45:28.289Z,78.80
2023-02-11T21:48:31.947Z,80.59
2023-02-11T21:51:38.125Z,81.49
2023-02-11T21:54:42.795Z,81.31
2023-02-11T21:57:49.811Z,82.58
2023-02-11T22:00:54.439Z,82.55
2023-02-11T22:03:59.306Z,83.31
2023-02-11T22:07:03.482Z,84.08
2023-02-11T22:10:08.471Z,84.79
2023-02-11T22:13:12.410Z,85.70
2023-02-11T22:16:21.795Z,86.34
2023-02-11T22:19:25.590Z,86.22
2023-02-11T22:22:29.500Z,87.06
2023-02-11T22:25:32.653Z,86.75
2023-02-11T22:28:39.332Z,86.78
2023-02-11T22:31:43.029Z,86.50
2023-02-11T22:34:46.644Z,87.45
2023-02-11T22:37:49.777Z,87.92
2023-02-11T22:40:53.413Z,88.68
2023-02-11T22:43:56.914Z,88.41
2023-02-11T22:47:00.473Z,87.24
2023-02-11T22:50:04.037Z,86.93
2023-02-11T22:53:08.810Z,86.83
2023-02-11T22:56:15.796Z,87.06
2023-02-11T22:59:21.476Z,87.93
2023-02-11T23:02:26.026Z,88.06
2023-02-11T23:05:29.592Z,88.68
2023-02-11T23:08:33.747Z,89.17
2023-02-11T23:11:39.904Z,89.20
2023-02-11T23:14:44.327Z,87.64
2023-02-11T23:17:47.764Z,88.07
2023-02-11T23:20:50.994Z,88.66
2023-02-11T23:23:59.657Z,88.14
2023-02-11T23:27:03.526Z,87.82
2023-02-11T23:30:08.393Z,88.23
2023-02-11T23:33:11.635Z,89.07
2023-02-11T23:36:16.037Z,88.92
2023-02-11T23:39:19.757Z,88.49
2023-02-11T23:42:23.581Z,89.05
2023-02-11T23:45:27.347Z,89.46
2023-02-11T23:48:31.254Z,90.32
2023-02-11T23:51:34.454Z,90.79
2023-02-11T23:54:37.910Z,91.20
2023-02-11T23:57:41.137Z,92.20
